createdAt,value
2022-09-03T00:00:58.381Z,51.40
2022-09-03T00:04:06.129Z,50.92
2022-09-03T00:07:13.456Z,49.07
2022-09-03T00:10:22.581Z,47.70
2022-09-03T00:13:29.817Z,47.41
2022-09-03T00:16:47.141Z,48.51
2022-09-03T00:19:56.654Z,48.85
2022-09-03T00:23:01.925Z,48.75
2022-09-03T00:26:17.797Z,47.41
2022-09-03T00:29:25.477Z,47.99
2022-09-03T00:32:35.039Z,46.90
2022-09-03T00:35:43.233Z,47.05
2022-09-03T00:38:46.157Z,48.42
2022-09-03T00:41:59.606Z,48.71
2022-09-03T00:45:07.196Z,48.92
2022-09-03T00:48:17.760Z,49.03
2022-09-03T00:51:28.303Z,49.33
2022-09-03T00:54:40.213Z,49.68
2022-09-03T00:57:47.986Z,49.77
2022-09-03T01:00:52.810Z,49.70
2022-09-03T01:04:01.255Z,50.15
2022-09-03T01:07:09.735Z,50.24
2022-09-03T01:10:19.611Z,50.43
2022-09-03T01:13:25.087Z,50.39
2022-09-03T01:16:36.846Z,49.91
2022-09-03T01:19:56.761Z,49.49
2022-09-03T01:23:39.549Z,49.59
2022-09-03T01:27:03.546Z,50.07
2022-09-03T01:30:10.565Z,50.34
2022-09-03T01:33:18.720Z,50.80
2022-09-03T01:36:27.159Z,50.82
2022-09-03T01:39:36.307Z,51.02
2022-09-03T01:42:48.393Z,50.94
2022-09-03T01:46:00.338Z,51.61
2022-09-03T01:49:07.695Z,51.76
2022-09-03T01:52:14.328Z,51.18
2022-09-03T01:55:29.907Z,51.31
2022-09-03T01:58:36.392Z,51.33
2022-09-03T02:01:44.791Z,50.74
2022-09-03T02:04:57.518Z,50.53
2022-09-03T02:08:01.992Z,49.80
2022-09-03T02:11:07.125Z,48.46
2022-09-03T02:14:10.044Z,49.12
2022-09-03T02:17:14.605Z,49.41
2022-09-03T02:20:21.326Z,49.28
2022-09-03T02:23:27.720Z,49.54
2022-09-03T02:26:31.330Z,49.09
2022-09-03T02:29:34.464Z,49.50
2022-09-03T02:32:39.001Z,48.67
2022-09-03T02:35:42.104Z,49.35
2022-09-03T02:38:45.708Z,50.06
2022-09-03T02:41:53.045Z,50.67
2022-09-03T02:44:58.813Z,51.12
2022-09-03T02:48:03.129Z,51.09
2022-09-03T02:51:13.688Z,51.25
2022-09-03T02:54:20.947Z,52.11
2022-09-03T02:57:27.729Z,51.84
2022-09-03T03:00:30.676Z,52.41
2022-09-03T03:03:34.816Z,52.43
2022-09-03T03:06:37.495Z,52.89
2022-09-03T03:09:40.486Z,52.43
2022-09-03T03:12:43.088Z,52.41
2022-09-03T03:15:46.302Z,52.91
2022-09-03T03:18:50.833Z,53.51
2022-09-03T03:21:53.653Z,53.95
2022-09-03T03:24:57.713Z,53.03
2022-09-03T03:28:01.185Z,53.29
2022-09-03T03:31:07.590Z,53.31
2022-09-03T03:34:11.716Z,54.28
2022-09-03T03:37:14.497Z,54.75
2022-09-03T03:40:17.857Z,54.85
2022-09-03T03:43:20.232Z,55.01
2022-09-03T03:46:23.832Z,55.73
2022-09-03T03:49:27.866Z,56.16
2022-09-03T03:52:30.686Z,55.88
2022-09-03T03:55:35.295Z,55.87
2022-09-03T03:58:44.005Z,56.60
2022-09-03T04:01:46.802Z,56.59
2022-09-03T04:04:50.894Z,57.27
2022-09-03T04:07:53.994Z,57.37
2022-09-03T04:11:00.802Z,56.93
2022-09-03T04:14:03.995Z,57.69
2022-09-03T04:17:06.869Z,57.52
2022-09-03T04:20:11.293Z,57.24
2022-09-03T04:23:13.927Z,57.38
2022-09-03T04:26:19.074Z,57.58
2022-09-03T04:29:22.791Z,57.86
2022-09-03T04:32:43.032Z,57.95
2022-09-03T04:35:47.163Z,58.17
2022-09-03T04:38:51.713Z,58.68
2022-09-03T04:41:54.707Z,59.14
2022-09-03T04:44:57.427Z,59.29
2022-09-03T04:48:00.812Z,59.43
2022-09-03T04:51:06.268Z,59.50
2022-09-03T04:54:09.987Z,59.58
2022-09-03T04:57:12.998Z,59.95
2022-09-03T05:00:18.201Z,59.69
2022-09-03T05:03:22.091Z,59.39
2022-09-03T05:06:27.047Z,59.35
2022-09-03T05:09:29.733Z,58.69
2022-09-03T05:12:33.572Z,58.36
2022-09-03T05:15:36.634Z,57.60
2022-09-03T05:18:42.017Z,57.65
2022-09-03T05:21:46.058Z,57.38
2022-09-03T05:24:48.792Z,57.02
2022-09-03T05:27:51.751Z,56.18
2022-09-03T05:31:00.501Z,55.99
2022-09-03T05:34:04.907Z,54.93
2022-09-03T05:37:09.025Z,54.79
2022-09-03T05:40:13.071Z,54.52
2022-09-03T05:43:17.242Z,54.26
2022-09-03T05:46:20.113Z,54.23
2022-09-03T05:49:22.783Z,53.74
2022-09-03T05:52:26.976Z,53.35
2022-09-03T05:55:29.856Z,53.52
2022-09-03T05:58:33.110Z,53.46
2022-09-03T06:01:36.043Z,53.31
2022-09-03T06:04:38.841Z,53.53
2022-09-03T06:07:42.996Z,53.37
2022-09-03T06:10:45.803Z,52.69
2022-09-03T06:13:48.547Z,52.57
2022-09-03T06:16:53.339Z,53.19
2022-09-03T06:19:56.425Z,53.58
2022-09-03T06:23:00.445Z,53.26
2022-09-03T06:26:05.588Z,52.99
2022-09-03T06:29:08.634Z,52.27
2022-09-03T06:32:11.325Z,51.32
2022-09-03T06:35:14.262Z,50.82
2022-09-03T06:38:21.344Z,49.98
2022-09-03T06:41:25.892Z,50.13
2022-09-03T06:44:28.619Z,49.90
2022-09-03T06:47:31.891Z,49.70
2022-09-03T06:50:34.899Z,50.06
2022-09-03T06:53:40.447Z,49.89
2022-09-03T06:56:43.243Z,49.96
2022-09-03T06:59:45.880Z,50.22
2022-09-03T07:02:48.786Z,50.11
2022-09-03T07:05:51.641Z,49.95
2022-09-03T07:08:58.013Z,49.76
2022-09-03T07:12:01.420Z,49.66
2022-09-03T07:15:04.460Z,49.27
2022-09-03T07:18:07.267Z,49.45
2022-09-03T07:21:11.280Z,49.60
2022-09-03T07:24:15.348Z,49.81
2022-09-03T07:27:17.992Z,49.69
2022-09-03T07:30:20.650Z,49.81
2022-09-03T07:33:23.239Z,50.38
2022-09-03T07:36:27.875Z,49.90
2022-09-03T07:39:33.644Z,48.79
2022-09-03T07:42:38.498Z,47.61
2022-09-03T07:45:41.361Z,46.98
2022-09-03T07:48:49.116Z,46.44
2022-09-03T07:51:54.419Z,45.39
2022-09-03T07:54:59.363Z,45.12
2022-09-03T07:58:01.933Z,45.01
2022-09-03T08:01:11.147Z,44.85
2022-09-03T08:04:14.409Z,45.07
2022-09-03T08:07:17.048Z,44.47
2022-09-03T08:10:21.126Z,45.59
2022-09-03T08:13:23.999Z,45.02
2022-09-03T08:16:31.124Z,43.33
2022-09-03T08:19:33.996Z,42.97
2022-09-03T08:22:37.488Z,42.79
2022-09-03T08:25:41.557Z,42.89
2022-09-03T08:28:44.736Z,42.41
2022-09-03T08:31:47.400Z,43.16
2022-09-03T08:34:50.732Z,42.91
2022-09-03T08:37:56.794Z,41.07
2022-09-03T08:41:06.238Z,39.40
2022-09-03T08:44:18.069Z,39.79
2022-09-03T08:47:23.657Z,40.33
2022-09-03T08:50:27.947Z,40.07
2022-09-03T08:53:37.615Z,38.69
2022-09-03T08:56:42.279Z,37.72
2022-09-03T08:59:44.898Z,38.02
2022-09-03T09:03:01.453Z,38.55
2022-09-03T09:06:10.095Z,39.62
2022-09-03T09:09:22.221Z,39.31
2022-09-03T09:12:42.799Z,39.95
2022-09-03T09:15:53.572Z,39.91
2022-09-03T09:19:11.493Z,42.63
2022-09-03T09:22:19.106Z,42.75
2022-09-03T09:25:24.290Z,43.73
2022-09-03T09:28:32.083Z,43.22
2022-09-03T09:31:35.583Z,42.91
2022-09-03T09:34:39.565Z,43.25
2022-09-03T09:37:52.302Z,44.04
2022-09-03T09:40:57.179Z,42.12
2022-09-03T09:44:06.029Z,42.50
2022-09-03T09:47:11.917Z,42.42
2022-09-03T09:50:25.051Z,42.09
2022-09-03T09:53:30.320Z,40.53
2022-09-03T09:56:33.283Z,39.82
2022-09-03T09:59:38.525Z,39.48
2022-09-03T10:02:42.563Z,40.07
2022-09-03T10:06:02.311Z,37.64
2022-09-03T10:09:10.029Z,36.95
2022-09-03T10:12:19.682Z,36.42
2022-09-03T10:15:27.466Z,36.78
2022-09-03T10:18:37.319Z,38.37
2022-09-03T10:21:44.948Z,38.74
2022-09-03T10:24:52.549Z,39.53
2022-09-03T10:27:56.830Z,39.10
2022-09-03T10:31:16.221Z,40.10
2022-09-03T10:34:23.797Z,38.82
2022-09-03T10:37:33.366Z,40.19
2022-09-03T10:40:39.312Z,40.20
2022-09-03T10:43:54.706Z,40.10
2022-09-03T10:47:04.136Z,40.58
2022-09-03T10:50:13.149Z,39.41
2022-09-03T10:53:23.104Z,38.20
2022-09-03T10:56:31.235Z,37.63
2022-09-03T10:59:43.775Z,37.91
2022-09-03T11:03:03.595Z,37.52
2022-09-03T11:06:10.040Z,37.01
2022-09-03T11:09:18.918Z,36.83
2022-09-03T11:12:26.006Z,36.45
2022-09-03T11:15:33.212Z,35.92
2022-09-03T11:18:41.323Z,36.12
2022-09-03T11:21:45.014Z,36.19
2022-09-03T11:24:53.467Z,35.98
2022-09-03T11:28:09.050Z,36.24
2022-09-03T11:31:24.015Z,36.35
2022-09-03T11:34:45.649Z,36.06
2022-09-03T11:37:55.077Z,36.03
2022-09-03T11:41:02.382Z,36.23
2022-09-03T11:44:18.171Z,36.72
2022-09-03T11:47:24.266Z,37.82
2022-09-03T11:50:29.842Z,38.99
2022-09-03T11:53:37.906Z,39.37
2022-09-03T11:56:42.233Z,41.27
2022-09-03T11:59:45.725Z,42.40
2022-09-03T12:02:51.639Z,43.34
2022-09-03T12:06:11.858Z,44.41
2022-09-03T12:09:25.529Z,45.20
2022-09-03T12:12:49.640Z,46.27
2022-09-03T12:16:23.194Z,46.99
2022-09-03T12:19:30.198Z,47.56
2022-09-03T12:22:38.701Z,48.54
2022-09-03T12:25:45.746Z,49.58
2022-09-03T12:28:49.750Z,50.45
2022-09-03T12:31:56.418Z,51.82
2022-09-03T12:34:59.678Z,53.53
2022-09-03T12:38:05.185Z,58.60
2022-09-03T12:41:23.464Z,59.34
2022-09-03T12:44:32.639Z,61.61
2022-09-03T12:47:40.744Z,64.37
2022-09-03T12:50:49.490Z,67.42
2022-09-03T12:54:01.269Z,71.24
2022-09-03T12:57:04.688Z,73.31
2022-09-03T13:00:09.758Z,77.19
2022-09-03T13:03:14.483Z,82.16
2022-09-03T13:06:20.127Z,83.56
2022-09-03T13:09:26.439Z,84.62
2022-09-03T13:12:33.316Z,85.46
2022-09-03T13:15:36.335Z,84.95
2022-09-03T13:18:43.503Z,84.54
2022-09-03T13:21:50.318Z,83.32
2022-09-03T13:25:05.898Z,82.26
2022-09-03T13:28:17.288Z,78.70
2022-09-03T13:31:28.316Z,72.83
2022-09-03T13:34:33.853Z,68.55
2022-09-03T13:37:39.829Z,63.01
2022-09-03T13:40:48.534Z,54.73
2022-09-03T13:43:56.175Z,58.03
2022-09-03T13:47:01.969Z,51.49
2022-09-03T13:50:23.401Z,45.43
2022-09-03T13:53:35.922Z,30.43
2022-09-03T13:56:52.129Z,33.29
2022-09-03T13:59:58.136Z,36.14
2022-09-03T14:03:09.229Z,40.23
2022-09-03T14:06:20.163Z,40.10
2022-09-03T14:09:34.240Z,34.20
2022-09-03T14:12:46.814Z,29.21
2022-09-03T14:15:53.572Z,32.13
2022-09-03T14:18:59.127Z,41.42
2022-09-03T14:22:15.216Z,37.88
2022-09-03T14:25:19.621Z,30.43
2022-09-03T14:28:31.152Z,29.27
2022-09-03T14:31:53.516Z,29.84
2022-09-03T14:35:07.861Z,30.22
2022-09-03T14:38:33.100Z,36.50
2022-09-03T14:42:11.542Z,36.31
2022-09-03T14:45:30.247Z,38.28
2022-09-03T14:48:55.393Z,36.41
2022-09-03T14:52:09.340Z,31.99
2022-09-03T14:55:22.923Z,36.63
2022-09-03T14:58:36.408Z,41.78
2022-09-03T15:01:40.689Z,42.58
2022-09-03T15:04:53.388Z,39.13
2022-09-03T15:07:58.110Z,24.29
2022-09-03T15:11:02.426Z,18.36
2022-09-03T15:14:11.791Z,19.81
2022-09-03T15:17:34.269Z,20.73
2022-09-03T15:20:47.222Z,17.83
2022-09-03T15:24:00.038Z,18.61
2022-09-03T15:27:13.717Z,23.94
2022-09-03T15:30:19.001Z,29.13
2022-09-03T15:33:30.308Z,34.61
2022-09-03T15:36:37.563Z,35.41
2022-09-03T15:39:43.169Z,26.85
2022-09-03T15:42:47.949Z,21.08
2022-09-03T15:45:57.874Z,18.59
2022-09-03T15:49:04.769Z,19.45
2022-09-03T15:52:11.562Z,25.98
2022-09-03T15:55:16.685Z,28.68
2022-09-03T15:58:25.592Z,31.30
2022-09-03T16:01:34.270Z,36.77
2022-09-03T16:04:50.567Z,39.77
2022-09-03T16:08:06.376Z,41.76
2022-09-03T16:11:12.283Z,34.29
2022-09-03T16:14:17.633Z,28.41
2022-09-03T16:17:28.866Z,30.11
2022-09-03T16:20:37.824Z,36.49
2022-09-03T16:23:44.310Z,40.96
2022-09-03T16:26:51.993Z,44.71
2022-09-03T16:30:00.473Z,47.28
2022-09-03T16:33:09.519Z,49.48
2022-09-03T16:36:30.112Z,50.42
2022-09-03T16:39:41.996Z,51.00
2022-09-03T16:42:48.804Z,51.27
2022-09-03T16:46:00.927Z,51.36
2022-09-03T16:49:12.522Z,51.54
2022-09-03T16:52:37.822Z,51.47
2022-09-03T16:55:59.089Z,51.98
2022-09-03T16:59:10.772Z,51.60
2022-09-03T17:02:41.561Z,50.61
2022-09-03T17:06:03.351Z,50.04
2022-09-03T17:09:13.953Z,50.45
2022-09-03T17:12:25.816Z,51.53
2022-09-03T17:15:35.014Z,52.90
2022-09-03T17:18:45.471Z,54.50
2022-09-03T17:21:50.789Z,54.96
2022-09-03T17:25:02.158Z,54.74
2022-09-03T17:28:24.774Z,55.16
2022-09-03T17:31:37.259Z,55.83
2022-09-03T17:34:54.599Z,56.90
2022-09-03T17:38:02.043Z,58.20
2022-09-03T17:41:16.474Z,59.67
2022-09-03T17:44:28.012Z,60.71
2022-09-03T17:47:50.013Z,62.08
2022-09-03T17:50:55.697Z,63.77
2022-09-03T17:54:05.530Z,65.10
2022-09-03T17:57:16.806Z,66.52
2022-09-03T18:00:25.242Z,68.11
2022-09-03T18:03:32.916Z,69.44
2022-09-03T18:06:43.644Z,70.49
2022-09-03T18:09:53.869Z,71.36
2022-09-03T18:13:08.382Z,73.16
2022-09-03T18:16:15.677Z,74.30
2022-09-03T18:19:31.086Z,75.40
2022-09-03T18:22:55.706Z,76.13
2022-09-03T18:26:18.834Z,76.84
2022-09-03T18:29:52.322Z,76.95
2022-09-03T18:33:15.557Z,77.95
2022-09-03T18:36:35.996Z,78.55
2022-09-03T18:39:56.198Z,79.19
2022-09-03T18:43:24.988Z,79.71
2022-09-03T18:50:39.464Z,79.71
2022-09-03T18:54:02.258Z,79.98
2022-09-03T18:57:27.262Z,79.65
2022-09-03T19:00:49.544Z,80.23
2022-09-03T19:04:20.026Z,80.12
2022-09-03T19:07:46.661Z,80.35
2022-09-03T19:11:10.685Z,80.53
2022-09-03T19:14:39.600Z,80.46
2022-09-03T19:18:18.339Z,80.93
2022-09-03T19:21:45.556Z,81.65
2022-09-03T19:25:16.549Z,82.33
2022-09-03T19:28:39.040Z,82.54
2022-09-03T19:32:03.076Z,83.17
2022-09-03T19:35:33.281Z,83.53
2022-09-03T19:39:04.708Z,83.71
2022-09-03T19:42:32.035Z,84.92
2022-09-03T19:46:00.518Z,84.93
2022-09-03T19:49:27.937Z,86.02
2022-09-03T19:52:53.216Z,86.22
2022-09-03T19:56:16.828Z,85.91
2022-09-03T19:59:39.173Z,86.29
2022-09-03T20:03:00.600Z,86.84
2022-09-03T20:06:23.868Z,87.45
2022-09-03T20:09:48.687Z,86.70
2022-09-03T20:13:00.503Z,86.06
2022-09-03T20:16:08.425Z,85.87
2022-09-03T20:19:18.874Z,85.70
2022-09-03T20:22:30.741Z,86.41
2022-09-03T20:25:50.461Z,85.61
2022-09-03T20:29:16.739Z,85.30
2022-09-03T20:32:32.496Z,85.52
2022-09-03T20:35:44.881Z,85.89
2022-09-03T20:39:23.036Z,87.34
2022-09-03T20:42:42.223Z,87.48
2022-09-03T20:45:56.329Z,88.21
2022-09-03T20:49:05.170Z,88.77
2022-09-03T20:52:11.184Z,88.90
2022-09-03T20:55:21.337Z,89.10
2022-09-03T20:58:27.500Z,89.12
2022-09-03T21:01:36.642Z,88.68
2022-09-03T21:04:52.393Z,88.32
2022-09-03T21:08:01.649Z,88.74
2022-09-03T21:11:07.731Z,88.51
2022-09-03T21:14:20.539Z,87.70
2022-09-03T21:17:35.297Z,87.80
2022-09-03T21:20:44.271Z,87.32
2022-09-03T21:23:49.545Z,87.00
2022-09-03T21:26:54.965Z,86.56
2022-09-03T21:30:02.181Z,86.04
2022-09-03T21:33:10.068Z,85.23
2022-09-03T21:36:15.789Z,85.96
2022-09-03T21:39:22.573Z,87.29
2022-09-03T21:42:28.566Z,87.15
2022-09-03T21:45:36.480Z,87.51
2022-09-03T21:48:42.553Z,87.73
2022-09-03T21:51:51.049Z,87.51
2022-09-03T21:54:54.917Z,87.53
2022-09-03T21:58:09.651Z,86.70
2022-09-03T22:01:16.511Z,92.11
2022-09-03T22:04:20.555Z,95.13
2022-09-03T22:07:30.862Z,95.59
2022-09-03T22:10:36.063Z,97.26
2022-09-03T22:13:44.030Z,97.63
2022-09-03T22:16:49.675Z,97.44
2022-09-03T22:19:53.697Z,95.81
2022-09-03T22:22:59.069Z,95.19
2022-09-03T22:26:07.441Z,96.26
2022-09-03T22:29:16.067Z,97.79
2022-09-03T22:32:28.580Z,97.86
2022-09-03T22:35:53.255Z,99.23
2022-09-03T22:39:04.686Z,99.48
2022-09-03T22:42:29.371Z,99.53
2022-09-03T22:45:45.182Z,99.63
2022-09-03T22:49:07.269Z,100.00
2022-09-03T22:52:29.961Z,100.00
2022-09-03T22:55:34.028Z,100.00
2022-09-03T22:58:40.548Z,100.00
2022-09-03T23:01:45.447Z,100.00
2022-09-03T23:04:52.250Z,100.00
2022-09-03T23:07:58.895Z,100.00
2022-09-03T23:11:06.297Z,100.00
2022-09-03T23:14:12.505Z,100.00
2022-09-03T23:17:20.200Z,100.00
2022-09-03T23:20:25.433Z,100.00
2022-09-03T23:23:32.528Z,100.00
2022-09-03T23:26:38.608Z,100.00
2022-09-03T23:29:43.690Z,100.00
2022-09-03T23:32:46.353Z,100.00
2022-09-03T23:35:54.963Z,100.00
2022-09-03T23:39:04.849Z,100.00
2022-09-03T23:42:15.139Z,100.00
2022-09-03T23:45:23.786Z,100.00
2022-09-03T23:48:36.781Z,100.00
2022-09-03T23:51:50.768Z,100.00
2022-09-03T23:55:01.997Z,100.00
2022-09-03T23:58:10.694Z,100.00
